createdAt,value
2019-05-02T00:00:14.241Z,22.70
2019-05-02T00:02:45.466Z,21.90
2019-05-02T00:05:18.026Z,20.77
2019-05-02T00:07:48.827Z,17.40
2019-05-02T00:10:24.485Z,21.37
2019-05-02T00:12:53.049Z,20.40
2019-05-02T00:15:23.878Z,19.97
2019-05-02T00:17:56.829Z,20.50
2019-05-02T00:20:28.872Z,24.03
2019-05-02T00:22:59.669Z,19.67
2019-05-02T00:25:31.514Z,22.60
2019-05-02T00:28:02.653Z,21.00
2019-05-02T00:30:34.686Z,24.70
2019-05-02T00:33:06.243Z,25.37
2019-05-02T00:35:40.973Z,23.33
2019-05-02T00:38:09.589Z,23.87
2019-05-02T00:40:40.380Z,20.43
2019-05-02T00:43:11.335Z,23.27
2019-05-02T00:45:42.224Z,20.83
2019-05-02T00:48:35.925Z,21.00
2019-05-02T00:51:06.668Z,21.07
2019-05-02T00:53:38.526Z,21.43
2019-05-02T00:56:10.403Z,24.33
2019-05-02T00:58:41.294Z,23.37
2019-05-02T01:04:33.784Z,23.93
2019-05-02T01:07:05.156Z,21.27
2019-05-02T01:09:35.966Z,21.97
2019-05-02T01:12:08.449Z,20.67
2019-05-02T01:14:39.391Z,22.70
2019-05-02T01:17:10.251Z,20.47
2019-05-02T01:19:41.288Z,23.10
2019-05-02T01:22:16.032Z,20.90
2019-05-02T01:24:46.503Z,22.93
2019-05-02T01:27:36.041Z,22.70
2019-05-02T01:30:37.133Z,21.47
2019-05-02T01:33:25.326Z,23.40
2019-05-02T01:36:07.997Z,20.63
2019-05-02T01:38:42.541Z,21.13
2019-05-02T01:41:13.313Z,24.60
2019-05-02T01:43:44.099Z,22.80
2019-05-02T01:46:20.459Z,24.43
2019-05-02T01:48:47.761Z,21.27
2019-05-02T01:51:18.745Z,21.57
2019-05-02T01:53:49.536Z,21.17
2019-05-02T01:56:20.307Z,20.70
2019-05-02T01:58:53.116Z,20.87
2019-05-02T02:01:23.693Z,19.47
2019-05-02T02:03:54.455Z,21.73
2019-05-02T02:06:25.350Z,21.73
2019-05-02T02:08:57.626Z,21.73
2019-05-02T02:11:33.687Z,21.63
2019-05-02T02:14:00.983Z,20.53
2019-05-02T02:16:35.298Z,20.07
2019-05-02T02:19:13.922Z,21.27
2019-05-02T02:22:04.422Z,24.50
2019-05-02T02:24:39.417Z,19.93
2019-05-02T02:27:10.324Z,23.20
2019-05-02T02:29:44.068Z,23.97
2019-05-02T02:32:19.921Z,23.30
2019-05-02T02:34:46.272Z,26.53
2019-05-02T02:37:17.188Z,23.70
2019-05-02T02:39:48.379Z,25.20
2019-05-02T02:42:24.962Z,25.17
2019-05-02T02:45:00.010Z,26.60
2019-05-02T02:47:31.223Z,25.93
2019-05-02T02:50:03.048Z,26.37
2019-05-02T02:52:37.727Z,25.87
2019-05-02T02:55:07.211Z,22.83
2019-05-02T02:57:37.985Z,26.13
2019-05-02T03:00:11.141Z,26.67
2019-05-02T03:02:47.592Z,24.67
2019-05-02T03:05:18.745Z,24.53
2019-05-02T03:07:46.512Z,26.77
2019-05-02T03:10:18.381Z,26.80
2019-05-02T03:13:07.883Z,26.87
2019-05-02T03:15:44.065Z,27.10
2019-05-02T03:18:15.021Z,25.53
2019-05-02T03:20:45.802Z,26.87
2019-05-02T03:23:21.677Z,28.43
2019-05-02T03:25:51.377Z,28.97
2019-05-02T03:28:22.570Z,25.63
2019-05-02T03:30:53.407Z,29.53
2019-05-02T03:33:25.117Z,27.57
2019-05-02T03:35:55.956Z,27.13
2019-05-02T03:38:33.038Z,29.17
2019-05-02T03:41:00.254Z,28.87
2019-05-02T03:43:31.092Z,30.07
2019-05-02T03:46:02.275Z,30.27
2019-05-02T03:48:33.119Z,32.50
2019-05-02T03:51:05.187Z,30.77
2019-05-02T03:53:36.692Z,31.63
2019-05-02T03:56:11.667Z,29.47
2019-05-02T03:58:41.124Z,30.10
2019-05-02T04:01:11.939Z,30.07
2019-05-02T04:03:43.837Z,28.80
2019-05-02T04:06:21.036Z,26.20
2019-05-02T04:08:58.695Z,30.27
2019-05-02T04:11:25.842Z,29.87
2019-05-02T04:13:57.561Z,28.27
2019-05-02T04:16:29.964Z,30.17
2019-05-02T04:19:07.291Z,30.97
2019-05-02T04:21:38.546Z,34.60
2019-05-02T04:24:15.723Z,36.17
2019-05-02T04:26:53.939Z,33.47
2019-05-02T04:29:17.881Z,30.53
2019-05-02T04:31:48.684Z,36.43
2019-05-02T04:34:19.591Z,34.40
2019-05-02T04:36:59.780Z,38.80
2019-05-02T04:39:22.912Z,35.67
2019-05-02T04:41:53.721Z,31.37
2019-05-02T04:44:29.822Z,36.53
2019-05-02T04:47:09.961Z,33.20
2019-05-02T04:49:35.652Z,32.37
2019-05-02T04:52:07.885Z,34.93
2019-05-02T04:54:38.941Z,30.70
2019-05-02T04:57:09.359Z,34.27
2019-05-02T04:59:40.198Z,34.07
2019-05-02T05:02:11.182Z,34.70
2019-05-02T05:04:48.656Z,34.43
2019-05-02T05:07:17.749Z,33.00
2019-05-02T05:09:56.994Z,34.73
2019-05-02T05:12:22.332Z,39.33
2019-05-02T05:14:53.178Z,38.53
2019-05-02T05:17:25.164Z,36.77
2019-05-02T05:19:57.692Z,39.37
2019-05-02T05:22:28.969Z,38.30
2019-05-02T05:25:12.177Z,36.23
2019-05-02T05:27:40.421Z,40.33
2019-05-02T05:30:15.645Z,35.47
2019-05-02T05:32:43.863Z,38.63
2019-05-02T05:35:17.737Z,37.37
2019-05-02T05:37:52.957Z,34.60
2019-05-02T05:40:22.743Z,36.77
2019-05-02T05:42:53.663Z,40.53
2019-05-02T05:45:24.611Z,40.70
2019-05-02T05:47:57.534Z,34.13
2019-05-02T05:50:32.191Z,39.17
2019-05-02T05:53:02.239Z,39.00
2019-05-02T05:55:34.226Z,36.97
2019-05-02T05:58:12.484Z,38.80
2019-05-02T06:00:38.014Z,37.63
2019-05-02T06:03:13.749Z,36.00
2019-05-02T06:05:42.315Z,42.73
2019-05-02T06:08:13.863Z,39.10
2019-05-02T06:10:45.864Z,45.07
2019-05-02T06:13:16.792Z,41.13
2019-05-02T06:15:47.585Z,41.77
2019-05-02T06:18:18.363Z,43.07
2019-05-02T06:20:49.368Z,44.67
2019-05-02T06:23:20.327Z,45.40
2019-05-02T06:25:51.092Z,47.93
2019-05-02T06:28:23.072Z,47.93
2019-05-02T06:30:53.838Z,46.83
2019-05-02T06:33:26.013Z,50.37
2019-05-02T06:36:01.114Z,44.30
2019-05-02T06:38:29.647Z,45.27
2019-05-02T06:41:00.465Z,45.73
2019-05-02T06:43:31.330Z,39.80
2019-05-02T06:46:15.233Z,45.43
2019-05-02T06:48:34.679Z,47.40
2019-05-02T06:51:10.973Z,47.83
2019-05-02T06:53:47.078Z,42.93
2019-05-02T06:56:14.192Z,44.47
2019-05-02T06:58:46.291Z,43.93
2019-05-02T07:01:21.265Z,43.47
2019-05-02T07:03:49.909Z,48.40
2019-05-02T07:06:21.809Z,42.07
2019-05-02T07:08:52.672Z,41.70
2019-05-02T07:11:23.738Z,38.57
2019-05-02T07:13:54.690Z,37.10
2019-05-02T07:16:38.642Z,36.27
2019-05-02T07:19:27.342Z,37.63
2019-05-02T07:22:03.783Z,41.37
2019-05-02T07:24:32.649Z,38.60
2019-05-02T07:27:03.700Z,39.27
2019-05-02T07:29:35.691Z,42.30
2019-05-02T07:32:06.877Z,36.53
2019-05-02T07:34:37.880Z,39.53
2019-05-02T07:37:12.645Z,39.80
2019-05-02T07:39:42.612Z,42.07
2019-05-02T07:42:13.578Z,39.17
2019-05-02T07:44:45.431Z,46.57
2019-05-02T07:47:16.330Z,39.87
2019-05-02T07:49:47.182Z,32.20
2019-05-02T07:52:18.111Z,38.97
2019-05-02T07:54:48.934Z,34.93
2019-05-02T07:57:19.708Z,37.37
2019-05-02T07:59:54.974Z,37.87
2019-05-02T08:02:25.157Z,35.00
2019-05-02T08:04:56.383Z,38.53
2019-05-02T08:07:34.058Z,33.73
2019-05-02T08:09:59.687Z,35.57
2019-05-02T08:12:30.508Z,32.63
2019-05-02T08:15:01.377Z,33.47
2019-05-02T08:17:34.796Z,37.73
2019-05-02T08:20:08.532Z,34.27
2019-05-02T08:22:39.121Z,35.97
2019-05-02T08:25:12.145Z,35.27
2019-05-02T08:28:05.116Z,33.93
2019-05-02T08:30:41.913Z,38.70
2019-05-02T08:33:15.849Z,36.50
2019-05-02T08:35:46.991Z,38.13
2019-05-02T08:38:18.975Z,35.13
2019-05-02T08:40:50.030Z,35.33
2019-05-02T08:43:20.969Z,41.93
2019-05-02T08:45:51.895Z,39.57
2019-05-02T08:48:22.879Z,36.57
2019-05-02T08:50:53.756Z,41.83
2019-05-02T08:53:24.701Z,40.57
2019-05-02T08:55:55.649Z,40.20
2019-05-02T08:58:26.462Z,37.70
2019-05-02T09:00:57.356Z,35.37
2019-05-02T09:03:28.235Z,35.93
2019-05-02T09:06:05.584Z,39.20
2019-05-02T09:08:31.733Z,35.80
2019-05-02T09:11:02.588Z,37.03
2019-05-02T09:13:33.516Z,34.63
2019-05-02T09:16:06.003Z,32.50
2019-05-02T09:18:44.826Z,33.33
2019-05-02T09:21:12.479Z,30.83
2019-05-02T09:23:44.007Z,31.97
2019-05-02T09:26:15.128Z,33.17
2019-05-02T09:28:46.227Z,32.47
2019-05-02T09:31:17.219Z,31.10
2019-05-02T09:33:49.278Z,29.43
2019-05-02T09:36:20.218Z,32.20
2019-05-02T09:38:55.964Z,31.60
2019-05-02T09:41:26.930Z,30.33
2019-05-02T09:43:56.445Z,29.33
2019-05-02T09:46:27.380Z,30.23
2019-05-02T09:49:04.313Z,31.87
2019-05-02T09:51:32.548Z,30.60
2019-05-02T09:54:06.297Z,30.67
2019-05-02T09:56:36.117Z,32.13
2019-05-02T09:59:25.922Z,28.23
2019-05-02T10:01:43.848Z,32.30
2019-05-02T10:04:14.884Z,30.87
2019-05-02T10:06:45.709Z,30.00
2019-05-02T10:09:18.837Z,27.47
2019-05-02T10:11:49.400Z,29.30
2019-05-02T10:14:22.404Z,29.50
2019-05-02T10:16:53.183Z,30.17
2019-05-02T10:19:26.124Z,29.10
2019-05-02T10:21:57.688Z,28.73
2019-05-02T10:24:29.438Z,27.47
2019-05-02T10:27:04.304Z,29.57
2019-05-02T10:29:33.153Z,27.43
2019-05-02T10:32:07.637Z,26.77
2019-05-02T10:34:36.674Z,29.40
2019-05-02T10:37:07.532Z,27.47
2019-05-02T10:39:38.437Z,28.20
2019-05-02T10:42:12.500Z,29.57
2019-05-02T10:44:43.527Z,28.53
2019-05-02T10:47:14.485Z,26.83
2019-05-02T10:49:53.187Z,23.83
2019-05-02T10:52:29.454Z,28.07
2019-05-02T10:54:57.575Z,30.70
2019-05-02T10:57:28.437Z,22.93
2019-05-02T11:00:00.435Z,26.97
2019-05-02T11:02:53.413Z,23.30
2019-05-02T11:05:26.599Z,27.37
2019-05-02T11:08:04.633Z,25.07
2019-05-02T11:10:32.172Z,23.33
2019-05-02T11:13:22.696Z,28.10
2019-05-02T11:16:27.734Z,25.17
2019-05-02T11:19:07.649Z,26.80
2019-05-02T11:21:38.745Z,25.23
2019-05-02T11:24:13.786Z,22.47
2019-05-02T11:26:45.721Z,28.23
2019-05-02T11:29:16.647Z,25.17
2019-05-02T11:31:47.509Z,27.20
2019-05-02T11:34:18.293Z,27.97
2019-05-02T11:36:49.358Z,25.97
2019-05-02T11:39:27.753Z,24.23
2019-05-02T11:41:53.226Z,26.33
2019-05-02T11:44:24.035Z,25.97
2019-05-02T11:46:54.931Z,27.27
2019-05-02T11:49:25.896Z,25.07
2019-05-02T11:51:57.294Z,26.80
2019-05-02T11:54:28.288Z,25.40
2019-05-02T11:56:59.080Z,28.77
2019-05-02T11:59:31.842Z,28.43
2019-05-02T12:02:17.566Z,27.23
2019-05-02T12:04:47.434Z,25.23
2019-05-02T12:07:16.913Z,28.33
2019-05-02T12:09:55.478Z,25.20
2019-05-02T12:12:20.338Z,26.47
2019-05-02T12:14:52.719Z,29.00
2019-05-02T12:17:24.772Z,33.27
2019-05-02T12:19:55.713Z,26.87
2019-05-02T12:22:26.544Z,24.43
2019-05-02T12:24:57.424Z,23.83
2019-05-02T12:27:28.311Z,24.90
2019-05-02T12:29:59.377Z,26.97
2019-05-02T12:32:30.683Z,24.63
2019-05-02T12:35:02.467Z,26.43
2019-05-02T12:37:33.527Z,41.57
2019-05-02T12:40:04.694Z,25.70
2019-05-02T12:42:35.946Z,25.17
2019-05-02T12:45:07.098Z,24.93
2019-05-02T12:47:39.103Z,27.83
2019-05-02T12:50:11.990Z,25.83
2019-05-02T12:52:44.823Z,29.17
2019-05-02T12:55:15.928Z,24.87
2019-05-02T12:57:46.910Z,24.03
2019-05-02T13:00:18.782Z,25.40
2019-05-02T13:02:56.245Z,22.70
2019-05-02T13:05:27.168Z,24.53
2019-05-02T13:07:57.995Z,27.57
2019-05-02T13:11:01.886Z,26.13
2019-05-02T13:13:27.540Z,23.93
2019-05-02T13:16:00.725Z,24.03
2019-05-02T13:18:34.748Z,23.50
2019-05-02T13:21:08.192Z,25.47
2019-05-02T13:23:54.965Z,24.10
2019-05-02T13:26:27.365Z,25.43
2019-05-02T13:29:00.174Z,27.10
2019-05-02T13:31:39.146Z,26.73
2019-05-02T13:34:33.891Z,27.70
2019-05-02T13:37:05.756Z,30.37
2019-05-02T13:39:46.920Z,29.30
2019-05-02T13:42:18.832Z,25.90
2019-05-02T13:45:02.322Z,30.03
2019-05-02T13:47:34.565Z,29.27
2019-05-02T13:50:06.494Z,30.80
2019-05-02T13:52:37.397Z,30.23
2019-05-02T13:55:11.815Z,32.03
2019-05-02T13:57:46.957Z,33.93
2019-05-02T14:00:22.288Z,34.83
2019-05-02T14:02:53.633Z,32.17
2019-05-02T14:05:24.417Z,34.03
2019-05-02T14:08:12.533Z,32.90
2019-05-02T14:10:44.260Z,30.40
2019-05-02T14:13:15.083Z,32.70
2019-05-02T14:15:45.967Z,32.43
2019-05-02T14:18:16.761Z,34.87
2019-05-02T14:20:47.713Z,34.67
2019-05-02T14:23:18.683Z,35.87
2019-05-02T14:25:49.515Z,34.60
2019-05-02T14:28:22.263Z,40.37
2019-05-02T14:30:52.879Z,37.20
2019-05-02T14:33:26.436Z,36.70
2019-05-02T14:35:57.221Z,39.60
2019-05-02T14:38:28.124Z,42.67
2019-05-02T14:41:12.991Z,42.17
2019-05-02T14:43:56.590Z,40.33
2019-05-02T14:46:34.243Z,42.30
2019-05-02T14:49:02.525Z,40.27
2019-05-02T14:51:36.578Z,41.10
2019-05-02T14:54:08.581Z,46.57
2019-05-02T14:56:57.231Z,46.37
2019-05-02T14:59:28.974Z,46.67
2019-05-02T15:02:05.772Z,47.03
2019-05-02T15:04:38.143Z,45.80
2019-05-02T15:07:07.839Z,45.50
2019-05-02T15:09:41.743Z,48.37
2019-05-02T15:12:15.815Z,46.20
2019-05-02T15:14:49.827Z,50.17
2019-05-02T15:17:17.490Z,47.67
2019-05-02T15:19:48.306Z,51.27
2019-05-02T15:22:20.287Z,45.80
2019-05-02T15:24:52.985Z,41.00
2019-05-02T15:27:23.760Z,44.57
2019-05-02T15:30:00.905Z,48.33
2019-05-02T15:32:37.267Z,43.80
2019-05-02T15:35:17.670Z,49.47
2019-05-02T15:37:46.987Z,45.77
2019-05-02T15:42:56.627Z,47.47
2019-05-02T15:45:26.360Z,42.90
2019-05-02T15:47:57.301Z,38.10
2019-05-02T15:50:28.231Z,40.13
2019-05-02T15:53:09.936Z,33.73
2019-05-02T15:55:39.707Z,37.20
2019-05-02T15:58:22.994Z,35.50
2019-05-02T16:01:07.320Z,36.20
2019-05-02T16:03:46.540Z,40.07
2019-05-02T16:06:24.334Z,34.80
2019-05-02T16:08:52.076Z,35.17
2019-05-02T16:11:23.192Z,37.13
2019-05-02T16:13:56.009Z,36.90
2019-05-02T16:16:27.179Z,39.27
2019-05-02T16:18:58.139Z,32.37
2019-05-02T16:21:38.399Z,31.23
2019-05-02T16:24:23.134Z,30.07
2019-05-02T16:26:57.122Z,31.73
2019-05-02T16:29:29.113Z,25.77
2019-05-02T16:32:06.404Z,32.07
2019-05-02T16:34:54.157Z,26.70
2019-05-02T16:37:23.666Z,29.57
2019-05-02T16:39:54.793Z,31.33
2019-05-02T16:42:25.877Z,30.93
2019-05-02T16:44:56.768Z,27.63
2019-05-02T16:47:27.768Z,30.00
2019-05-02T16:49:58.574Z,29.97
2019-05-02T16:52:29.420Z,32.23
2019-05-02T16:55:00.369Z,31.57
2019-05-02T16:57:34.858Z,31.27
2019-05-02T17:00:06.332Z,35.47
2019-05-02T17:02:43.610Z,34.23
2019-05-02T17:05:12.058Z,30.77
2019-05-02T17:08:02.280Z,34.53
2019-05-02T17:10:52.345Z,33.10
2019-05-02T17:13:21.645Z,34.20
2019-05-02T17:15:52.576Z,37.83
2019-05-02T17:18:23.667Z,35.70
2019-05-02T17:20:56.757Z,30.53
2019-05-02T17:23:27.240Z,34.70
2019-05-02T17:25:58.233Z,33.07
2019-05-02T17:28:29.191Z,35.47
2019-05-02T17:31:00.269Z,38.17
2019-05-02T17:33:32.380Z,35.00
2019-05-02T17:36:03.868Z,33.10
2019-05-02T17:38:34.835Z,33.13
2019-05-02T17:41:07.977Z,32.80
2019-05-02T17:43:42.154Z,33.10
2019-05-02T17:46:12.661Z,35.37
2019-05-02T17:48:47.812Z,35.33
2019-05-02T17:51:37.676Z,34.77
2019-05-02T17:54:08.615Z,31.40
2019-05-02T17:56:44.501Z,29.03
2019-05-02T18:08:21.761Z,35.30
2019-05-02T18:10:58.557Z,35.27
2019-05-02T18:13:29.278Z,38.23
2019-05-02T18:15:57.666Z,35.77
2019-05-02T18:18:28.637Z,35.37
2019-05-02T18:20:59.485Z,39.23
2019-05-02T18:23:32.266Z,35.53
2019-05-02T18:26:06.202Z,36.67
2019-05-02T18:28:46.216Z,40.87
2019-05-02T18:31:08.552Z,38.30
2019-05-02T18:33:41.028Z,36.67
2019-05-02T18:36:12.174Z,38.13
2019-05-02T18:38:43.117Z,40.47
2019-05-02T18:41:15.870Z,43.87
2019-05-02T18:43:46.999Z,38.87
2019-05-02T18:46:19.914Z,41.20
2019-05-02T18:48:51.884Z,42.20
2019-05-02T18:51:23.610Z,41.77
2019-05-02T18:53:57.897Z,36.50
2019-05-02T18:56:27.501Z,40.60
2019-05-02T18:59:02.650Z,39.80
2019-05-02T19:01:35.045Z,37.67
2019-05-02T19:04:09.623Z,36.27
2019-05-02T19:06:42.083Z,38.40
2019-05-02T19:09:17.461Z,45.67
2019-05-02T19:11:46.137Z,48.70
2019-05-02T19:14:22.209Z,48.13
2019-05-02T19:16:49.799Z,39.63
2019-05-02T19:19:22.460Z,41.37
2019-05-02T19:21:54.248Z,38.00
2019-05-02T19:24:27.446Z,34.70
2019-05-02T19:26:58.108Z,39.03
2019-05-02T19:29:31.870Z,33.30
2019-05-02T19:32:04.918Z,31.50
2019-05-02T19:37:13.329Z,20.87
2019-05-02T19:39:48.718Z,19.70
2019-05-02T19:42:22.589Z,19.93
2019-05-02T19:44:52.830Z,16.60
2019-05-02T19:47:23.795Z,9.10
2019-05-02T19:49:54.684Z,12.40
2019-05-02T19:52:28.593Z,8.67
2019-05-02T19:55:14.022Z,7.87
2019-05-02T19:57:43.211Z,7.40
2019-05-02T20:00:14.068Z,7.37
2019-05-02T20:02:46.335Z,4.77
2019-05-02T20:05:24.121Z,5.63
2019-05-02T20:07:52.016Z,5.70
2019-05-02T20:10:23.053Z,6.40
2019-05-02T20:12:54.140Z,8.53
2019-05-02T20:15:27.379Z,7.17
2019-05-02T20:18:00.614Z,5.27
2019-05-02T20:20:52.052Z,6.77
2019-05-02T20:23:28.683Z,4.73
2019-05-02T20:25:57.232Z,4.33
2019-05-02T20:28:28.147Z,4.20
2019-05-02T20:30:59.225Z,5.87
2019-05-02T20:33:34.616Z,4.23
2019-05-02T20:36:12.316Z,3.67
2019-05-02T20:38:43.414Z,5.17
2019-05-02T20:41:14.287Z,7.20
2019-05-02T20:43:45.235Z,4.83
2019-05-02T20:46:17.486Z,3.10
2019-05-02T20:48:48.556Z,4.37
2019-05-02T20:51:22.712Z,3.20
2019-05-02T20:53:55.237Z,5.63
2019-05-02T20:56:26.189Z,4.90
2019-05-02T20:58:57.075Z,4.07
2019-05-02T21:01:27.939Z,4.67
2019-05-02T21:03:59.988Z,4.83
2019-05-02T21:06:41.972Z,4.80
2019-05-02T21:09:24.512Z,5.50
2019-05-02T21:12:02.078Z,6.43
2019-05-02T21:14:33.056Z,3.33
2019-05-02T21:17:04.159Z,6.83
2019-05-02T21:19:35.032Z,6.43
2019-05-02T21:22:12.052Z,5.50
2019-05-02T21:24:42.915Z,4.97
2019-05-02T21:27:13.688Z,3.27
2019-05-02T21:29:44.493Z,3.60
2019-05-02T21:32:15.423Z,3.70
2019-05-02T21:34:46.194Z,6.67
2019-05-02T21:37:17.211Z,3.77
2019-05-02T21:39:48.242Z,4.03
2019-05-02T21:42:19.037Z,5.07
2019-05-02T21:44:51.809Z,5.50
2019-05-02T21:47:22.988Z,4.30
2019-05-02T21:50:08.535Z,4.70
2019-05-02T21:53:04.626Z,5.93
2019-05-02T21:55:48.073Z,5.03
2019-05-02T21:58:18.895Z,6.50
2019-05-02T22:01:12.985Z,4.63
2019-05-02T22:03:43.970Z,8.33
2019-05-02T22:06:15.883Z,6.37
2019-05-02T22:08:46.699Z,4.97
2019-05-02T22:11:17.481Z,3.20
2019-05-02T22:13:48.292Z,5.97
2019-05-02T22:16:19.063Z,4.20
2019-05-02T22:18:49.957Z,2.50
2019-05-02T22:21:23.495Z,5.00
2019-05-02T22:23:54.371Z,4.73
2019-05-02T22:26:25.236Z,6.57
2019-05-02T22:28:55.983Z,5.50
2019-05-02T22:31:26.794Z,4.93
2019-05-02T22:33:58.644Z,5.07
2019-05-02T22:36:29.459Z,3.77
2019-05-02T22:39:17.844Z,3.43
2019-05-02T22:41:48.627Z,4.07
2019-05-02T22:44:19.415Z,6.23
2019-05-02T22:46:52.163Z,4.13
2019-05-02T22:49:22.900Z,2.80
2019-05-02T22:51:53.790Z,6.60
2019-05-02T22:54:30.338Z,6.00
2019-05-02T22:56:57.566Z,4.00
2019-05-02T22:59:28.896Z,5.20
2019-05-02T23:02:02.127Z,7.83
2019-05-02T23:04:33.101Z,4.53
2019-05-02T23:07:03.945Z,5.17
2019-05-02T23:09:34.735Z,5.37
2019-05-02T23:12:06.007Z,3.87
2019-05-02T23:14:36.991Z,5.60
2019-05-02T23:17:07.760Z,6.17
2019-05-02T23:19:38.523Z,5.17
2019-05-02T23:22:09.412Z,4.43
2019-05-02T23:25:14.431Z,5.10
2019-05-02T23:27:56.240Z,4.10
2019-05-02T23:30:27.096Z,5.20
2019-05-02T23:32:57.926Z,6.93
2019-05-02T23:35:28.816Z,4.93
2019-05-02T23:37:59.629Z,6.77
2019-05-02T23:40:30.423Z,7.17
2019-05-02T23:43:01.880Z,7.90
2019-05-02T23:45:32.855Z,5.03
2019-05-02T23:48:04.345Z,4.93
2019-05-02T23:50:35.124Z,5.80
2019-05-02T23:53:05.948Z,6.17
2019-05-02T23:55:36.806Z,4.53
2019-05-02T23:58:07.592Z,6.97
